x

9439040 - Astoria, Or (asto3) Weather Station

1:18 - Wed 23rd Aug 2017 All times are PDT. -7 hours from GMT.

  • Wind
    13mph, 16mph gusts
  • Sea Temp 71°f
  • Ar Temp 64°f
  • Sea Pressure 1017.2mb
  • 9439040 - Astoria, Or
  • 9439040 - Astoria, Or

More Historic Weather Station data

Upgrade to MSW Pro to gain access to the past 30 days of data for over 8000 Wavebouys and Weather Stations around the globe.

Join

Comparision Forecast

View Surf forecast
   
Qua 08/23 1:18 13 16 mph 1017.2mb 71f 64f
1:12 13 15 mph 1017.2mb 71f 64f
1:06 13 14 mph 1017.2mb 71f 64f
1:00 13 14 mph 1017.1mb 71f 64f
12:54 11 14 mph 1017.1mb 71f 64f
12:48 13 14 mph 1017.1mb 71f 64f
12:42 11 14 mph 1017.1mb 71f 64f
12:36 10 13 mph 1017.2mb 71f 64f
12:30 9 13 mph 1017.2mb 71f 64f
12:24 9 13 mph 1017.3mb 71f 64f
12:18 8 11 mph 1017.3mb 71f 64f
12:12 10 13 mph 1017.3mb 71f 64f
12:06 9 11 mph 1017.3mb 71f 64f
12:00 7 9 mph 1017.3mb 71f 64f
11:54 7 9 mph 1017.4mb 71f 64f
11:48 7 8 mph 1017.4mb 71f 64f
11:42 8 9 mph 1017.4mb 71f 64f
11:36 6 8 mph 1017.4mb 71f 64f
11:30 6 8 mph 1017.4mb 71f 64f
11:24 6 8 mph 1017.4mb 71f 64f
11:18 6 8 mph 1017.3mb 71f 64f
11:12 6 7 mph 1017.3mb 71f 64f
11:06 3 6 mph 1017.3mb 71f 64f
11:00 6 7 mph 1017.4mb 71f 64f
10:54 3 6 mph 1017.5mb 71f 64f
10:48 5 7 mph 1017.5mb 71f 64f
10:42 3 7 mph 1017.5mb 70f 64f
10:36 6 8 mph 1017.5mb 70f 63f
10:30 6 8 mph 1017.5mb 70f 63f
10:24 5 8 mph 1017.5mb 70f 63f
10:18 5 8 mph 1017.6mb 70f 63f
10:12 6 7 mph 1017.6mb 70f 63f
10:06 3 6 mph 1017.6mb 70f 63f
10:00 5 6 mph 1017.7mb 70f 63f
9:54 6 9 mph 1017.7mb 70f 63f
9:48 6 7 mph 1017.7mb 69f 63f
9:42 8 10 mph 1017.7mb 69f 62f
9:36 5 8 mph 1017.7mb 69f 63f
9:30 8 10 mph 1017.7mb 69f 62f
9:24 5 11 mph 1017.7mb 68f 62f
9:18 7 10 mph 1017.7mb 68f 62f
9:12 9 11 mph 1017.6mb 68f 62f
9:06 9 11 mph 1017.6mb 68f 62f
9:00 9 10 mph 1017.7mb 68f 62f
8:54 8 11 mph 1017.7mb 68f 62f
8:48 8 9 mph 1017.7mb 68f 62f
8:42 5 7 mph 1017.7mb 68f 62f
8:36 5 6 mph 1017.7mb 68f 62f
8:30 5 8 mph 1017.7mb 68f 62f
8:24 5 6 mph 1017.6mb 68f 62f
8:18 7 9 mph 1017.7mb 68f 62f
8:12 6 8 mph 1017.7mb 68f 62f
8:06 6 9 mph 1017.6mb 68f 62f
8:00 9 11 mph 1017.6mb 68f 62f
7:54 6 10 mph 1017.6mb 68f 62f
7:48 7 10 mph 1017.5mb 68f 62f
7:42 10 16 mph 1017.4mb 68f 62f
7:36 8 13 mph 1017.5mb 68f 62f
7:30 10 13 mph 1017.5mb 68f 62f
7:24 8 10 mph 1017.5mb 68f 62f
7:18 6 10 mph 1017.5mb 68f 62f
7:12 8 10 mph 1017.5mb 68f 62f
7:06 8 10 mph 1017.5mb 67f 62f
7:00 9 13 mph 1017.6mb 68f 62f
6:54 5 10 mph 1017.6mb 68f 62f
6:48 10 11 mph 1017.6mb 68f 62f
6:42 9 11 mph 1017.5mb 68f 62f
6:36 10 13 mph 1017.4mb 68f 62f
6:30 10 14 mph 1017.4mb 68f 62f
6:24 10 14 mph 1017.4mb 68f 62f
6:18 8 10 mph 1017.5mb 68f 62f
6:12 6 7 mph 1017.5mb 68f 62f
6:06 7 9 mph 1017.4mb 68f 62f
6:00 7 9 mph 1017.4mb 68f 62f
5:54 7 9 mph 1017.3mb 68f 62f
5:48 6 10 mph 1017.4mb 68f 62f
5:42 7 9 mph 1017.4mb 68f 62f
5:36 6 9 mph 1017.4mb 68f 62f
5:30 7 9 mph 1017.4mb 68f 62f
5:24 8 9 mph 1017.4mb 68f 62f
5:18 7 8 mph 1017.5mb 68f 62f
5:12 6 7 mph 1017.5mb 68f 62f
5:06 6 8 mph 1017.5mb 68f 62f
5:00 3 7 mph 1017.5mb 69f 61f
4:54 3 6 mph 1017.5mb 69f 61f
4:48 5 7 mph 1017.5mb 69f 62f
4:42 5 7 mph 1017.6mb 69f 62f
4:36 7 8 mph 1017.7mb 69f 61f
4:30 6 9 mph 1017.7mb 69f 61f
4:24 7 9 mph 1017.8mb 69f 61f
4:18 7 9 mph 1017.9mb 69f 61f
4:12 5 9 mph 1018mb 69f 61f
4:06 7 8 mph 1018mb 69f 61f
4:00 3 11 mph 1018mb 69f 61f
3:54 8 9 mph 1017.9mb 69f 61f
3:48 7 9 mph 1017.9mb 69f 61f
3:42 6 7 mph 1018mb 69f 61f
3:36 5 6 mph 1018mb 68f 61f
3:30 5 9 mph 1018.1mb 68f 61f
3:24 9 15 mph 1018.1mb 68f 61f
3:18 10 13 mph 1018.1mb 68f 61f
3:12 8 13 mph 1018.2mb 67f 61f
3:06 6 8 mph 1018.2mb 67f 61f
3:00 2 5 mph 1018.2mb 68f 61f
2:54 5 6 mph 1018.3mb 68f 61f
2:48 3 8 mph 1018.3mb 69f 61f
2:42 5 8 mph 1018.3mb 69f 61f
2:36 3 6 mph 1018.3mb 69f 61f
2:30 5 7 mph 1018.3mb 69f 60f
2:24 3 7 mph 1018.3mb 69f 61f
2:18 5 7 mph 1018.3mb 69f 61f
2:12 6 7 mph 1018.3mb 69f 61f
2:06 5 7 mph 1018.3mb 69f 60f
2:00 3 8 mph 1018.4mb 69f 61f
1:54 7 9 mph 1018.5mb 69f 61f
1:48 7 8 mph 1018.5mb 69f 61f
1:42 7 8 mph 1018.5mb 69f 61f
1:36 8 9 mph 1018.5mb 69f 61f
1:30 8 9 mph 1018.5mb 70f 61f
1:24 7 9 mph 1018.6mb 70f 61f
1:18 6 8 mph 1018.6mb 70f 61f
1:12 5 8 mph 1018.6mb 71f 62f
1:06 6 7 mph 1018.6mb 71f 61f
1:00 5 7 mph 1018.6mb 71f 61f
12:54 5 6 mph 1018.6mb 71f 61f
12:48 5 6 mph 1018.6mb 71f 61f
12:42 6 7 mph 1018.6mb 71f 61f
12:36 6 7 mph 1018.6mb 71f 61f
12:30 6 6 mph 1018.5mb 71f 61f
12:24 6 7 mph 1018.6mb 71f 60f
12:18 6 8 mph 1018.6mb 71f 61f
12:12 7 8 mph 1018.6mb 71f 61f
12:06 6 9 mph 1018.6mb 71f 61f
12:00 6 8 mph 1018.6mb 71f 61f
Ter 08/22 11:48 6 8 mph 1018.6mb 71f -
11:42 5 8 mph 1018.6mb 71f -
11:36 6 7 mph 1018.6mb 71f -
11:30 6 9 mph 1018.6mb 71f 60f
11:24 8 10 mph 1018.7mb 71f 60f
11:18 7 8 mph 1018.6mb 71f 60f
11:12 7 9 mph 1018.6mb 71f 60f
11:06 7 9 mph 1018.6mb 71f 61f
11:00 7 10 mph 1018.6mb 71f 61f
10:54 7 9 mph 1018.6mb 71f 61f
10:48 8 10 mph 1018.5mb 71f -
10:42 8 9 mph 1018.5mb 71f -
10:36 8 10 mph 1018.6mb 71f -
10:30 7 10 mph 1018.5mb 71f 60f
10:24 9 11 mph 1018.5mb 71f 60f
10:18 8 10 mph 1018.5mb 71f 60f
10:12 9 11 mph 1018.5mb 71f 60f
10:06 10 11 mph 1018.5mb 71f 60f
10:00 8 11 mph 1018.5mb 71f 60f
9:54 9 13 mph 1018.4mb 71f 60f
9:48 8 10 mph 1018.4mb 71f 60f
9:42 8 11 mph 1018.5mb 71f 61f
9:36 9 11 mph 1018.5mb 71f 60f
9:30 9 14 mph 1018.5mb 71f 60f
9:24 9 13 mph 1018.5mb 71f 61f
9:18 9 11 mph 1018.5mb 71f 61f
9:12 8 11 mph 1018.5mb 71f 61f
9:06 8 10 mph 1018.3mb 70f 61f
9:00 8 10 mph 1018.3mb 70f 61f
8:54 8 10 mph 1018.3mb 71f 61f
8:48 6 11 mph 1018.3mb 71f 61f
8:42 7 11 mph 1018.3mb 70f 61f
8:36 8 13 mph 1018.2mb 70f 61f
8:30 10 13 mph 1018.3mb 70f 61f
8:24 9 11 mph 1018.2mb 69f 60f
8:18 8 11 mph 1018.2mb 69f 61f
8:12 9 13 mph 1018.1mb 69f 61f
8:06 10 13 mph 1018.1mb 69f 61f
8:00 10 13 mph 1018.1mb 69f 61f
7:54 9 13 mph 1018.1mb 69f 61f
7:48 10 14 mph 1018.1mb 69f 61f
7:42 11 14 mph 1018mb 69f 61f
7:36 10 13 mph 1018mb 69f 62f
7:30 11 16 mph 1018mb 69f 61f
7:24 14 16 mph 1017.9mb 69f 61f
7:18 11 16 mph 1017.9mb 69f 61f
7:12 14 16 mph 1017.8mb 69f 61f
7:06 13 16 mph 1017.8mb 69f 61f
7:00 15 17 mph 1017.8mb 69f 61f
6:54 14 17 mph 1017.8mb 69f 61f
6:48 13 15 mph 1017.7mb 69f 61f
6:42 11 16 mph 1017.7mb 69f 62f
6:36 14 16 mph 1017.7mb 69f 61f
6:30 15 17 mph 1017.7mb 69f 61f
6:24 14 18 mph 1017.7mb 69f 61f
6:18 14 16 mph 1017.7mb 69f 61f
6:12 14 16 mph 1017.7mb 68f 60f
6:06 14 17 mph 1017.8mb 68f 61f
6:00 14 17 mph 1017.8mb 68f 61f
5:48 15 17 mph 1018mb 67f 61f
5:42 15 17 mph 1018mb 67f 61f
5:36 14 17 mph 1018mb 67f 62f
5:30 14 17 mph 1018mb 67f 62f
5:24 15 18 mph 1018mb 68f 62f
5:18 13 15 mph 1018.1mb 68f 63f
5:12 14 15 mph 1018mb 69f 62f
5:06 11 14 mph 1018mb 69f 62f
5:00 10 14 mph 1018.1mb 69f 63f
4:54 14 15 mph 1018.1mb 69f 63f
4:48 13 14 mph 1018.2mb 69f 63f
4:42 11 14 mph 1018.2mb 69f 63f
4:36 11 14 mph 1018.2mb 70f 63f
4:30 9 13 mph 1018.3mb 70f 63f
4:24 10 13 mph 1018.3mb 69f 63f
4:18 10 14 mph 1018.3mb 69f 63f
4:12 11 14 mph 1018.3mb 69f 63f
4:06 10 14 mph 1018.4mb 69f 62f
4:00 11 14 mph 1018.4mb 68f 62f
3:54 11 13 mph 1018.4mb 69f 62f
3:48 10 13 mph 1018.5mb 69f 62f
3:42 9 11 mph 1018.5mb 69f 62f
3:36 10 14 mph 1018.6mb 68f 62f
3:30 13 15 mph 1018.6mb 68f 62f
3:24 13 15 mph 1018.7mb 69f 62f
3:18 11 15 mph 1018.7mb 69f 62f
3:12 11 15 mph 1018.7mb 69f 62f
3:06 13 15 mph 1018.8mb 69f 61f
3:00 13 15 mph 1018.8mb 69f 61f
2:54 13 15 mph 1018.8mb 69f 61f
2:48 13 15 mph 1018.9mb 69f 61f
2:42 13 15 mph 1018.9mb 69f 61f
2:36 13 15 mph 1018.9mb 69f 61f
2:30 13 14 mph 1018.9mb 70f 61f
2:24 13 15 mph 1018.9mb 70f 61f
2:18 11 14 mph 1018.9mb 70f 61f
2:12 11 13 mph 1019mb 70f 61f
2:06 10 13 mph 1018.9mb 70f 61f
2:00 10 13 mph 1019mb 70f 61f
1:54 10 13 mph 1018.9mb 70f 61f
1:48 11 14 mph 1018.9mb 70f 61f
1:42 9 11 mph 1018.8mb 71f 61f
1:36 10 13 mph 1018.8mb 71f 60f
1:30 9 11 mph 1018.7mb 71f 60f
1:24 9 13 mph 1018.8mb 71f 60f
1:18 9 13 mph 1018.8mb 71f 60f
1:12 9 14 mph 1018.8mb 71f 60f
1:06 10 14 mph 1018.7mb 71f 60f
1:00 10 13 mph 1018.8mb 71f 60f
12:54 10 14 mph 1018.8mb 71f 59f
12:48 11 14 mph 1018.7mb 71f 59f
12:42 9 13 mph 1018.8mb 71f 59f
12:36 8 11 mph 1018.8mb 71f 59f
12:30 10 13 mph 1018.8mb 71f 59f
12:24 10 13 mph 1018.7mb 71f 59f
12:18 11 14 mph 1018.8mb 71f 58f
12:12 11 14 mph 1018.8mb 71f 59f
12:06 10 14 mph 1018.8mb 71f 58f
12:00 10 15 mph 1018.7mb 71f 58f
11:54 10 15 mph 1018.7mb 71f 58f
11:48 11 14 mph 1018.7mb 71f 58f
11:42 9 14 mph 1018.6mb 71f 58f
11:36 11 15 mph 1018.6mb 71f 58f
11:30 9 14 mph 1018.7mb 71f 58f
11:24 10 16 mph 1018.6mb 71f 58f
11:18 11 15 mph 1018.6mb 71f 58f
11:12 11 15 mph 1018.6mb 71f 58f
11:06 11 15 mph 1018.5mb 71f 58f
11:00 9 14 mph 1018.5mb 71f 57f
10:54 10 13 mph 1018.5mb 71f 57f
10:48 11 14 mph 1018.5mb 71f 57f
10:42 9 11 mph 1018.4mb 71f 57f
10:36 13 14 mph 1018.4mb 71f 57f
10:30 11 13 mph 1018.4mb 71f 57f
10:24 10 14 mph 1018.3mb 71f 57f
10:18 10 13 mph 1018.3mb 71f 56f
10:12 8 14 mph 1018.2mb 71f 57f
10:06 11 14 mph 1018.2mb 71f 56f
10:00 10 15 mph 1018.2mb 71f 56f
9:54 10 15 mph 1018.1mb 71f 56f
9:48 11 14 mph 1018mb 71f 56f
9:42 13 14 mph 1018mb 71f 56f
9:36 10 14 mph 1017.9mb 71f 56f
9:30 7 9 mph 1017.8mb 71f 57f
9:24 3 7 mph 1017.8mb 71f 57f
9:18 5 10 mph 1017.8mb 71f 56f
9:12 7 10 mph 1017.7mb 70f 56f
9:06 2 3 mph 1017.7mb 70f 56f
9:00  -  5 mph 1017.6mb 70f 56f
8:54 1 5 mph 1017.6mb 70f 55f
8:48 2 5 mph 1017.6mb 69f 55f
8:42 3 7 mph 1017.6mb 69f 55f
8:36 5 7 mph 1017.5mb 69f 55f
8:30 6 9 mph 1017.5mb 69f 55f
8:24 2 7 mph 1017.5mb 69f 54f
8:18 2 6 mph 1017.4mb 68f 54f
8:12 3 6 mph 1017.4mb 68f 54f
8:06 3 5 mph 1017.3mb 68f 54f
8:00 3 7 mph 1017.3mb 68f 54f
7:54 6 9 mph 1017.2mb 68f 54f
7:48 8 11 mph 1017.1mb 67f 53f
7:42 3 6 mph 1017.1mb 67f 54f
7:36 5 8 mph 1017mb 67f 53f
7:30 7 9 mph 1017mb 67f 53f
7:24 7 9 mph 1016.9mb 67f 53f
7:18 5 6 mph 1016.8mb 67f 54f
7:12 3 6 mph 1016.7mb 67f 54f
7:06 6 8 mph 1016.6mb 67f 54f
7:00 5 6 mph 1016.6mb 67f 54f
6:54 6 6 mph 1016.5mb 67f 54f
6:48 5 7 mph 1016.4mb 68f 54f
6:42 6 7 mph 1016.4mb 68f 54f
6:36 3 6 mph 1016.3mb 68f 54f
6:30 5 6 mph 1016.3mb 68f 55f
6:24 3 5 mph 1016.3mb 68f 55f
6:18 3 5 mph 1016.2mb 68f 55f
6:12 5 5 mph 1016.1mb 68f 55f
6:06 3 5 mph 1016mb 67f 55f
6:00 3 5 mph 1016mb 67f 55f
5:54 3 5 mph 1015.9mb 67f 55f
5:48 2 3 mph 1015.9mb 68f 55f
5:42 2 3 mph 1015.8mb 68f 56f
5:36 2 3 mph 1015.7mb 68f 55f
5:30 2 3 mph 1015.6mb 67f 56f
5:24 2 3 mph 1015.5mb 67f 56f
5:18 3 3 mph 1015.5mb 67f 56f
5:12 3 7 mph 1015.4mb 67f 56f
5:06 5 7 mph 1015.4mb 67f 56f
5:00 6 9 mph 1015.3mb 67f 57f
4:54 2 6 mph 1015.4mb 67f 57f
4:48 1 2 mph 1015.3mb 68f 57f
4:42 2 7 mph 1015.3mb 68f 57f
4:36 2 3 mph 1015.3mb 68f 57f
4:30 3 6 mph 1015.3mb 68f 58f
4:24 5 7 mph 1015.2mb 68f 58f
4:18 3 5 mph 1015.2mb 69f 58f
4:12 5 7 mph 1015.2mb 69f 58f
4:06 6 7 mph 1015.2mb 69f 58f
4:00 6 7 mph 1015.2mb 69f 58f
3:54 5 7 mph 1015.2mb 69f 58f
3:48 6 8 mph 1015.1mb 69f 58f
3:42 5 6 mph 1015.2mb 69f 58f
3:36 6 8 mph 1015.2mb 69f 58f
3:30 6 7 mph 1015.1mb 69f 58f
3:24 6 7 mph 1015.1mb 69f 58f
3:18 5 6 mph 1015.1mb 69f 58f
3:12 5 6 mph 1015.1mb 69f 58f
3:06 5 7 mph 1015.1mb 68f 58f
3:00 6 7 mph 1015.1mb 68f 58f
2:54 6 8 mph 1015.1mb 68f 59f
2:48 6 8 mph 1015.1mb 68f 59f
2:42 7 8 mph 1015.1mb 67f 59f
2:36 5 6 mph 1015mb 67f 59f
2:30 6 7 mph 1015mb 67f 59f
2:24 6 7 mph 1015mb 67f 59f
2:18 5 7 mph 1015mb 67f 59f
2:12 6 7 mph 1014.9mb 67f 59f
2:06 6 7 mph 1014.9mb 67f 59f
2:00 6 7 mph 1014.9mb 68f 59f
1:54 6 8 mph 1014.9mb 68f 60f
1:48 5 6 mph 1014.9mb 68f 60f
1:42 1 3 mph 1014.9mb 68f 60f
1:36 2 5 mph 1014.9mb 69f 60f
1:30 5 6 mph 1014.9mb 69f 60f
1:24 7 8 mph 1014.9mb 69f 60f
1:18 7 9 mph 1015mb 69f 60f
1:12 7 8 mph 1014.9mb 69f 60f
1:06 6 8 mph 1014.9mb 69f 60f
1:00 7 9 mph 1014.9mb 69f 60f
12:54 7 8 mph 1014.9mb 69f 60f
12:48 7 10 mph 1015mb 69f 60f
12:42 7 9 mph 1014.9mb 69f 61f
12:36 8 10 mph 1014.9mb 69f 61f
12:30 6 8 mph 1015mb 70f 61f
12:24 6 10 mph 1015mb 70f 61f
12:18 9 11 mph 1015.1mb 71f 60f
12:12 9 11 mph 1015.1mb 71f 60f
12:06 9 10 mph 1015mb 71f 60f
12:00 10 10 mph 1015mb 71f 61f
Seg 08/21 11:54 10 11 mph 1015mb 71f 61f
11:48 10 11 mph 1015mb - -
11:42 10 11 mph 1015mb - -
11:36 10 13 mph 1015mb - -
11:30 5 8 mph 1015mb 71f 64f
11:24 1 2 mph 1015mb 71f 64f
11:18 1 2 mph 1014.9mb 72f 64f
11:12 1 2 mph 1015mb 72f 64f
11:06 1 2 mph 1015mb 72f 64f
11:00 1 2 mph 1015mb 72f 64f
10:54  -  1 mph 1015mb 72f 64f
10:48  -  1 mph 1015mb 72f 64f
10:42  -  1 mph 1015mb 72f 64f
10:36 1 2 mph 1015mb 72f 64f
10:30  -  1 mph 1015mb 72f 64f
10:24  -  1 mph 1015mb 72f 64f
10:18 1 2 mph 1015mb 72f 64f
10:12 1 3 mph 1015mb 72f 64f
10:06 2 3 mph 1014.9mb 72f 65f
10:00 1 2 mph 1014.9mb 72f 65f
9:54 1 2 mph 1014.9mb 72f 65f
9:48 1 2 mph 1014.9mb 72f 65f
9:42 1 3 mph 1014.9mb 72f 65f
9:36 1 2 mph 1014.9mb 72f 65f
9:30 1 2 mph 1014.9mb 72f 65f
9:24  -  1 mph 1014.9mb 72f 65f
9:18  -  2 mph 1014.9mb 72f 65f
9:12  -  3 mph 1014.9mb 72f 65f
9:06 2 5 mph 1014.9mb 72f 66f
9:00 2 3 mph 1014.8mb 71f 66f
8:54 2 3 mph 1014.8mb 71f 67f
8:48  -  2 mph 1014.8mb 71f 67f
8:42 1 3 mph 1014.7mb 71f 67f
8:36  -  2 mph 1014.7mb 71f 68f
8:30 2 3 mph 1014.6mb 71f 68f
8:24 3 5 mph 1014.6mb 71f 68f
8:18 2 3 mph 1014.6mb 71f 69f
8:12 2 3 mph 1014.6mb 71f 69f
8:06 2 3 mph 1014.6mb 71f 69f
8:00 3 3 mph 1014.6mb 71f 70f
7:54 2 5 mph 1014.5mb 71f 70f
7:48 5 5 mph 1014.6mb 71f 70f
7:42 2 5 mph 1014.6mb 71f 70f
7:36 3 5 mph 1014.6mb 71f 70f
7:30 3 6 mph 1014.6mb 70f 70f
7:24 6 8 mph 1014.6mb 70f 69f
7:18 7 8 mph 1014.6mb 70f 70f
7:12 6 8 mph 1014.6mb 70f 70f
7:06 7 9 mph 1014.6mb 70f 70f
7:00 8 10 mph 1014.6mb 70f 70f
6:54 8 10 mph 1014.6mb 70f 70f
6:48 9 11 mph 1014.6mb 70f 70f
6:42 10 13 mph 1014.5mb 70f 70f
6:36 8 11 mph 1014.5mb 70f 71f
6:30 10 13 mph 1014.5mb 69f 71f
6:24 11 13 mph 1014.6mb 69f 71f
6:18 8 10 mph 1014.6mb 69f 72f
6:12 3 5 mph 1014.6mb 69f 74f
6:06 2 6 mph 1014.6mb 69f 76f
6:00 1 2 mph 1014.7mb 69f 75f
5:54 1 2 mph 1014.7mb 69f 75f
5:48 1 3 mph 1014.7mb 69f 75f
5:42 1 3 mph 1014.8mb 68f 75f
5:36 2 5 mph 1014.8mb 68f 74f
5:30 1 3 mph 1014.9mb 68f 74f
5:24 2 6 mph 1014.9mb 68f 74f
5:18 5 7 mph 1014.9mb 68f 73f
5:12 6 9 mph 1015mb 68f 72f
5:06 8 9 mph 1015.1mb 68f 71f
5:00 9 11 mph 1015.1mb 68f 71f
4:54 9 11 mph 1015.2mb 68f 71f
4:48 9 13 mph 1015.2mb 68f 71f
4:42 10 13 mph 1015.3mb 68f 71f
4:36 10 13 mph 1015.3mb 68f 71f
4:30 11 13 mph 1015.3mb 68f 70f
4:24 10 13 mph 1015.4mb 68f 70f
4:18 11 15 mph 1015.5mb 68f 69f
4:12 13 17 mph 1015.5mb 68f 68f
4:06 16 18 mph 1015.6mb 69f 67f
4:00 14 16 mph 1015.7mb 69f 68f
3:54 11 14 mph 1015.8mb 69f 69f
3:48 11 14 mph 1015.9mb 69f 69f
3:42 13 15 mph 1015.9mb 69f 68f
3:36 13 14 mph 1015.9mb 69f 68f
3:30 13 15 mph 1016mb 69f 67f
3:24 14 15 mph 1016.1mb 69f 67f
3:18 14 16 mph 1016.1mb 69f 66f
3:12 14 16 mph 1016.2mb 69f 66f
3:06 15 16 mph 1016.3mb 69f 65f
3:00 15 17 mph 1016.4mb 69f 65f
2:54 14 17 mph 1016.5mb 69f 65f
2:48 15 17 mph 1016.5mb 69f 64f
2:42 14 16 mph 1016.6mb 69f 64f
2:36 14 17 mph 1016.7mb 69f 65f
2:30 14 15 mph 1016.8mb 69f 66f
2:24 13 15 mph 1016.8mb 69f 67f
2:18 13 14 mph 1016.9mb 69f 67f
2:12 11 14 mph 1017mb 69f 67f
2:06 11 13 mph 1017mb 69f 67f
2:00 10 11 mph 1017.1mb 69f 67f
1:54 10 13 mph 1017.1mb 70f 67f
1:48 10 11 mph 1017.2mb 70f 67f
1:42 8 9 mph 1017.2mb 70f 68f
1:36 9 10 mph 1017.3mb 70f 68f
1:30 9 9 mph 1017.3mb 70f 68f
1:24 7 9 mph 1017.4mb 70f 68f
1:18 8 9 mph - 70f 68f
1:12 8 8 mph - 70f 67f
1:06 7 9 mph - 70f 67f
1:00 8 8 mph 1017.6mb 71f 67f
12:54 7 7 mph 1017.7mb 71f 67f
12:48 2 5 mph 1017.8mb 71f 67f
12:42 3 5 mph 1017.8mb 71f 67f
12:36 5 5 mph 1017.8mb 71f 67f
12:30 5 6 mph 1017.9mb 71f 67f
12:24 3 5 mph 1018mb 71f 66f
12:18 3 5 mph 1018mb 71f 66f
12:12 3 6 mph 1018mb 71f 66f
12:06 3 6 mph 1018.1mb 71f 66f
12:00 6 7 mph 1018.1mb 71f 65f
11:54 5 6 mph 1018.2mb 71f 65f
11:48 6 9 mph 1018.3mb 71f 64f
11:42 7 10 mph 1018.3mb 71f 64f
11:36 9 10 mph 1018.3mb 71f 63f
11:30 9 10 mph 1018.4mb 71f 63f
11:24 7 8 mph 1018.4mb 71f 63f
11:18 7 8 mph 1018.4mb 71f 63f
11:12 7 9 mph 1018.4mb 71f 63f
11:06 7 8 mph 1018.4mb 71f 63f
11:00 8 9 mph 1018.3mb 71f 63f
10:54 6 7 mph 1018.4mb 71f 63f
10:48 6 7 mph 1018.4mb 71f 62f
10:42 5 8 mph 1018.5mb 71f 62f
10:36 5 6 mph 1018.5mb 71f 62f
10:30 5 6 mph 1018.5mb 71f 62f
10:24 3 6 mph 1018.6mb 71f 62f
10:18 2 3 mph 1018.6mb 71f 62f
10:12  -  1 mph 1018.6mb 71f 62f
10:06  -  1 mph 1018.5mb 71f 63f
10:00 2 2 mph 1018.5mb 71f 63f
9:54  -  3 mph 1018.5mb 71f 63f
9:48 1 3 mph 1018.6mb 70f 62f
9:42 2 3 mph 1018.6mb 70f 62f
9:36 3 3 mph 1018.6mb 70f 62f
9:30 3 3 mph 1018.7mb 70f 62f
9:24 1 2 mph 1018.7mb 70f 62f
9:18 1 2 mph 1018.7mb 70f 62f
9:12  -  2 mph 1018.7mb 70f 62f
9:06 1 2 mph 1018.7mb 70f 61f
9:00 1 2 mph 1018.7mb 70f 61f
8:54  -  1 mph 1018.7mb 70f 61f
8:48 1 2 mph 1018.7mb 70f 61f
8:42  -  5 mph 1018.7mb 70f 61f
8:36 2 3 mph 1018.8mb 70f 60f
8:30 1 2 mph 1018.9mb 70f 60f
8:24  -  2 mph 1018.9mb 70f 60f
8:18 1 2 mph 1018.9mb 69f 59f
8:12 2 2 mph 1018.9mb 69f 59f
8:06 1 2 mph 1018.9mb 68f 59f
8:00 1 2 mph 1018.9mb 68f 59f
7:54 1 2 mph 1018.9mb 68f 59f
7:48 2 5 mph 1019mb 68f 59f
7:42 2 5 mph 1018.9mb 68f 59f
7:36 3 5 mph 1018.9mb 68f 59f
7:30 2 5 mph 1018.9mb 68f 59f
7:24 3 5 mph 1018.9mb 68f 59f
7:18 5 8 mph 1018.9mb 68f 59f
7:12 7 9 mph 1018.8mb 68f 59f
7:06 5 8 mph 1018.7mb 67f 59f
7:00 5 7 mph 1018.7mb 67f 59f
6:54 1 3 mph 1018.7mb 67f 59f
6:48  -  3 mph 1018.7mb 67f 60f
6:42 2 5 mph 1018.7mb 67f 59f
6:36 3 6 mph 1018.8mb 67f 59f
6:30 6 6 mph 1018.8mb 67f 59f
6:24 6 6 mph 1018.8mb 67f 60f
6:18 6 8 mph 1018.8mb 67f 59f
6:12 2 5 mph 1018.8mb 67f 60f
6:06 5 6 mph 1018.8mb 67f 60f
6:00 3 6 mph 1018.8mb 67f 60f
5:54 2 5 mph 1018.8mb 67f 60f
5:48 2 3 mph 1018.9mb 67f 59f
5:42 2 3 mph 1018.8mb 67f 59f
5:36  -  5 mph 1018.8mb 67f 59f
5:30 3 6 mph 1018.8mb 67f 59f
5:24 6 8 mph 1018.8mb 67f 59f
5:18 2 7 mph 1018.8mb 67f 59f
5:12 6 8 mph 1018.8mb 67f 59f
5:06 6 8 mph 1018.8mb 67f 59f
5:00 6 7 mph 1018.8mb 67f 59f
4:54 6 7 mph 1018.8mb 67f 59f
4:48 2 5 mph 1018.8mb 67f 59f
4:42 2 2 mph 1018.8mb 67f 59f
4:36 1 3 mph 1018.8mb 67f 59f
4:30 1 2 mph 1018.9mb 67f 59f
4:24 1 2 mph 1018.9mb 67f 59f
4:18 2 5 mph 1018.9mb 67f 60f
4:12 3 5 mph 1019mb 67f 60f
4:06 2 3 mph 1019mb 67f 59f
4:00 3 3 mph 1019.1mb 67f 59f
3:54  -  3 mph 1019.1mb 67f 59f
3:48 3 5 mph 1019.1mb 67f 59f
3:42 3 5 mph 1019.1mb 68f 59f
3:36 2 5 mph 1019.1mb 68f 60f
3:30 1 5 mph 1019.1mb 68f 60f
3:24 3 3 mph 1019.2mb 68f 60f
3:18 3 5 mph 1019.2mb 69f 60f
3:12 5 7 mph 1019.2mb 69f 60f
3:06 2 6 mph 1019.3mb 69f 60f
3:00 3 5 mph 1019.3mb 69f 59f
2:54 1 5 mph 1019.3mb 69f 60f
2:48 3 5 mph 1019.4mb 69f 59f
2:42 3 5 mph 1019.4mb 69f 60f
2:36 1 6 mph 1019.5mb 69f 60f
2:30 6 8 mph 1019.5mb 69f 60f
2:24 6 8 mph 1019.5mb 69f 60f
2:18 8 11 mph 1019.5mb 68f 60f
2:12 9 11 mph 1019.5mb 68f 60f
2:06 9 11 mph 1019.5mb 68f 60f
2:00 9 11 mph 1019.5mb 68f 60f
1:54 7 9 mph 1019.5mb 68f 60f
1:48 7 10 mph 1019.6mb 68f 61f
1:42 9 10 mph 1019.6mb 67f 60f
1:36 7 9 mph 1019.6mb 67f 60f
1:30 1 3 mph 1019.6mb 67f 60f
1:24 1 2 mph 1019.6mb 67f 60f
1:18  -  1 mph 1019.6mb 68f 60f
1:12  -  2 mph 1019.6mb 68f 60f
1:06 1 3 mph 1019.6mb 68f 59f
1:00 3 5 mph 1019.6mb 68f 60f
12:54 3 6 mph 1019.6mb 69f 60f
12:48 2 3 mph 1019.5mb 69f 60f
12:42 2 3 mph 1019.5mb 69f 60f
12:36 1 3 mph 1019.5mb 69f 60f
12:30 2 6 mph 1019.5mb 69f 60f
12:24 5 6 mph 1019.5mb 69f 60f
12:18 3 5 mph 1019.5mb 69f 61f
12:12 3 6 mph 1019.5mb 69f 62f
12:06 6 6 mph 1019.5mb 69f 62f
12:00 5 6 mph 1019.5mb 69f 62f
Dom 08/20 11:54 6 7 mph 1019.6mb 69f 62f
11:48 6 8 mph 1019.6mb - -
11:42 6 7 mph 1019.6mb - -
11:36 6 9 mph 1019.6mb - -
11:30 7 10 mph 1019.7mb 71f 63f
11:24 8 11 mph 1019.7mb 71f 63f
11:18 9 11 mph 1019.7mb 71f 63f
11:12 9 15 mph 1019.8mb 71f 64f
11:06 11 15 mph 1019.7mb 71f 63f
11:00 11 15 mph 1019.8mb 71f 64f
10:54 13 16 mph 1019.9mb 71f 64f
10:48 13 16 mph 1019.9mb - -
10:42 13 15 mph 1019.8mb - -
10:36 13 17 mph 1019.8mb - -
10:30 13 16 mph 1019.8mb 71f 64f
10:24 14 16 mph 1019.9mb 71f 64f
10:18 6 7 mph 1019.9mb 71f 64f
10:12 5 7 mph 1019.9mb 71f 63f
10:06 6 8 mph 1019.9mb 71f 63f
10:00 3 5 mph 1020mb 71f 63f
9:54 2 3 mph 1020mb 71f 63f
9:48 2 8 mph 1020mb 71f 63f
9:42 7 9 mph 1020mb 71f 64f
9:36 7 10 mph 1019.9mb 71f 64f
9:30 7 9 mph 1019.9mb 71f 64f
9:24 8 10 mph 1019.9mb 71f 64f
9:18 7 9 mph 1019.9mb 71f 64f
9:12 5 8 mph 1019.9mb 71f 64f
9:06 6 10 mph 1019.8mb 71f 64f
9:00 7 11 mph 1019.8mb 71f 64f
8:54 7 14 mph 1019.7mb 71f 64f
8:48 9 13 mph 1019.7mb 71f 64f
8:42 10 14 mph 1019.7mb 71f 64f
8:36 10 15 mph 1019.7mb 71f 64f
8:30 10 15 mph 1019.7mb 71f 64f
8:24 3 5 mph 1019.7mb 71f 65f
8:18 5 6 mph 1019.6mb 70f 65f
8:12 3 7 mph 1019.6mb 70f 65f
8:06 6 8 mph 1019.5mb 70f 65f
8:00 7 11 mph 1019.5mb 70f 65f
7:54 8 11 mph 1019.5mb 70f 65f
7:48 13 18 mph 1019.5mb 70f 65f
7:42 11 14 mph 1019.5mb 70f 65f
7:36 7 18 mph 1019.5mb 70f 66f
7:30 13 15 mph 1019.5mb 70f 66f
7:24 14 17 mph 1019.4mb 70f 66f
7:18 5 8 mph 1019.6mb 70f 67f
7:12 8 11 mph 1019.6mb 70f 67f
7:06 10 13 mph 1019.6mb 70f 67f
7:00 13 20 mph 1019.5mb 70f 67f
6:54 13 20 mph 1019.5mb 70f 67f
6:48 15 20 mph 1019.3mb 70f 67f
6:42 16 20 mph 1019.2mb 70f 67f
6:36 15 18 mph 1019.2mb 70f 67f
6:30 16 18 mph 1019.3mb 70f 67f
6:24 15 18 mph 1019.3mb 70f 67f
6:18 14 17 mph 1019.2mb 70f 67f
6:12 15 17 mph 1019.4mb 70f 67f
6:06 11 14 mph 1019.5mb 70f 67f
6:00 10 14 mph 1019.5mb 70f 68f
5:54 11 16 mph 1019.5mb 69f 68f
5:48 13 18 mph 1019.7mb 69f 68f
5:42 15 20 mph 1019.6mb 69f 67f
5:36 15 17 mph 1019.7mb 69f 68f
5:30 14 17 mph 1019.6mb 69f 67f
5:24 16 18 mph 1019.6mb 69f 67f
5:18 16
mph
1019.6mb 69f 67f
5:12 15 18 mph 1019.6mb 69f 67f
5:06 16 20 mph 1019.6mb 68f 67f
5:00 16 18 mph 1019.7mb 68f 67f
4:54 15 20 mph 1019.7mb 68f 67f
4:48 16 20 mph 1019.8mb 68f 67f
4:30 13 16 mph 1019.8mb 67f 68f
4:24 14 15 mph 1019.8mb 67f 68f
4:18 8 9 mph 1019.8mb 67f 68f
4:12 7 10 mph 1019.8mb 67f 68f
4:06 7 9 mph 1019.9mb 67f 68f
4:00 7 10 mph 1020mb 67f 68f
3:54 6 8 mph 1020mb 67f 68f
3:48 7 10 mph 1019.9mb 67f 68f
3:42 9 11 mph 1019.9mb 67f 67f
3:36 9 10 mph 1020mb 68f 67f
3:30 9 14 mph 1020mb 68f 67f
3:24 9 13 mph 1020.1mb 69f 67f
3:18 10 13 mph 1020.1mb 68f 66f
3:12 10 13 mph 1020.2mb 68f 66f
3:06 10 11 mph 1020.2mb 68f 66f
3:00 8 10 mph 1020.2mb 69f 67f
2:54 8 10 mph 1020.2mb 68f 67f
2:48 10 11 mph 1020.3mb 68f 66f
2:42 10 11 mph 1020.2mb 68f 66f
2:36 11 13 mph 1020.2mb 69f 66f
2:30 11 14 mph 1020.3mb 69f 66f
2:24 13 14 mph 1020.4mb 68f 66f
2:18 13 14 mph 1020.3mb 68f 66f
2:12 10 14 mph 1020.2mb 68f 66f
2:06 10 13 mph 1020.2mb 68f 66f
2:00 13 14 mph 1020.2mb 69f 66f
1:54 10 13 mph 1020.3mb 69f 66f
1:48 11 15 mph 1020.4mb 69f 65f
1:42 11 14 mph 1020.4mb 69f 66f
1:36 11 14 mph 1020.4mb 69f 65f
1:30 11 15 mph 1020.4mb 69f 65f
1:24 10 14 mph 1020.4mb 69f 65f
1:18 11 14 mph 1020.5mb 70f 65f
1:12 11 15 mph 1020.6mb 70f 65f
1:06 11 14 mph 1020.6mb 70f 65f
1:00 13 15 mph 1020.6mb 70f 65f
12:54 14 15 mph 1020.6mb 70f 64f
12:48 13 14 mph 1020.6mb 69f 65f
12:42 10 13 mph 1020.6mb 69f 65f
12:36 10 11 mph 1020.6mb 69f 65f
12:30 9 11 mph 1020.6mb 70f 64f
12:24 8 11 mph 1020.6mb 70f 64f
12:18 8 10 mph 1020.7mb 70f 64f
12:12 7 10 mph 1020.7mb 71f 64f
12:06 9 13 mph 1020.7mb 71f 64f
12:00 6 7 mph 1020.8mb 71f 64f
11:54 6 7 mph 1020.9mb 71f 64f
11:48 1 5 mph 1020.8mb 71f 64f
11:42 3 6 mph 1020.9mb 71f 64f
11:36 2 3 mph 1020.9mb 71f 64f
11:30 2 5 mph 1021mb 71f 64f
11:24 1 6 mph 1021mb 71f 64f
11:18 5 7 mph 1021.1mb 71f 63f
11:12 5 7 mph 1021.2mb 71f 63f
11:06 7 8 mph 1021.3mb 71f 63f
11:00 3 6 mph 1021.3mb 70f 62f
10:54 6 8 mph 1021.3mb 70f 62f
10:48 5 6 mph 1021.3mb 70f 62f
10:42 3 6 mph 1021.3mb 70f 62f
10:36 5 6 mph 1021.4mb 70f 62f
10:30 5 8 mph 1021.4mb 70f 61f
10:24 5 7 mph 1021.4mb 70f 61f
10:18 6 8 mph 1021.5mb 70f 62f
10:12 5 13 mph 1021.5mb 70f 61f
10:06 8 14 mph 1021.5mb 70f 62f
10:00 11 15 mph 1021.5mb 70f 61f
9:54 10 14 mph 1021.5mb 70f 61f
9:48 5 10 mph 1021.6mb 70f 61f
9:42 6 9 mph 1021.5mb 70f 60f
9:36 7 9 mph 1021.5mb 70f 60f
9:30 6 10 mph 1021.5mb 70f 60f
9:24 9 11 mph 1021.6mb 70f 59f
9:18 7 9 mph 1021.6mb 70f 59f
9:12 7 10 mph 1021.6mb 70f 59f
9:06 5 8 mph 1021.6mb 70f 60f
9:00 6 7 mph 1021.5mb 70f 59f
8:54 1 6 mph 1021.5mb 70f 60f
8:48 2 5 mph 1021.4mb 70f 59f
8:42 1 5 mph 1021.4mb 70f 59f
8:36 3 6 mph 1021.4mb 69f 58f
8:30 5 6 mph 1021.6mb 69f 58f
8:24 2 3 mph 1021.6mb 69f 58f
8:18 3 6 mph 1021.5mb 69f 58f
8:12 2 3 mph 1021.5mb 69f 57f
8:06 1 5 mph 1021.5mb 69f 56f
8:00 3 6 mph 1021.5mb 69f 57f
7:54 5 6 mph 1021.4mb 69f 57f
7:48 2 6 mph 1021.3mb 69f 58f
7:42 5 7 mph 1021.3mb 69f 58f
7:36 5 13 mph 1021.3mb 69f 60f
7:30 10 14 mph 1021.2mb 69f 59f
7:24 11 18 mph 1021.2mb 69f 60f
7:18 10 14 mph 1021.2mb 69f 59f
7:12 11 16 mph 1021.2mb 68f 59f
7:06 13 15 mph 1021.2mb 68f 59f
7:00 11 16 mph 1021.3mb 68f 59f
6:54 13 16 mph 1021.3mb 68f 59f
6:48 14 17 mph 1021.3mb 68f 59f
6:42 14 16 mph 1021.3mb 68f 59f
6:36 11 14 mph 1021.3mb 68f 58f
6:30 14 15 mph 1021.2mb 68f 58f
6:24 13 15 mph 1021.2mb 68f 58f
6:18 10 13 mph 1021.2mb 67f 58f
6:12 9 14 mph 1021.2mb 67f 58f
6:06 11 15 mph 1021.2mb 67f 58f
6:00 14 16 mph 1021.2mb 67f 58f
5:54 14 16 mph 1021.3mb 67f 58f
5:48 14 16 mph 1021.3mb 67f 58f
5:42 15 18 mph 1021.3mb 68f 58f
5:36 14 16 mph 1021.3mb 68f 58f
5:30 10 16 mph 1021.1mb 68f 58f
5:24 10 14 mph 1021.1mb 68f 59f
5:18 9 14 mph 1021.2mb 68f 59f
5:12 7 9 mph 1021.2mb 68f 58f
5:06 2 3 mph 1021.3mb 68f 56f
5:00  -  2 mph 1021.2mb 68f 56f
4:54 2 2 mph 1021.2mb 68f 56f
4:48 2 5 mph 1021.2mb 68f 56f
4:42 3 5 mph 1021.2mb 68f 55f
4:36 5 8 mph 1021.3mb 68f 55f
4:30 6 7 mph 1021.3mb 68f 56f
4:24 5 7 mph 1021.3mb 67f 56f
4:18 5 6 mph 1021.2mb 67f 57f
4:12 2 3 mph 1021.2mb 67f 58f
4:06 1 5 mph 1021.4mb 67f 58f
4:00 2 9 mph 1021.3mb 67f 58f
3:54 7 10 mph 1021.3mb 67f 59f
3:48 9 11 mph 1021.4mb 67f 59f
3:42 8 11 mph 1021.4mb 67f 59f
3:36 9 11 mph 1021.4mb 67f 59f
3:30 9 13 mph 1021.3mb 67f 59f
3:24 11 14 mph 1021.3mb 67f 59f
3:18 10 16 mph 1021.5mb 67f 59f
3:12 13 16 mph 1021.6mb 67f 59f
3:06 13 15 mph 1021.6mb 67f 58f
3:00 10 13 mph 1021.6mb 68f 59f
2:54 9 13 mph 1021.7mb 68f 59f
2:48 9 14 mph 1021.7mb 68f 59f
2:42 8 14 mph 1021.8mb 68f 59f
2:36 9 13 mph 1021.7mb 68f 59f
2:30 8 10 mph 1021.7mb 69f 59f
2:24 1 3 mph 1021.8mb 69f 58f
2:18 3 6 mph 1021.8mb 69f 58f
2:12 6 9 mph 1021.8mb 69f 59f
2:06 10 14 mph 1021.8mb 69f 60f
2:00 10 13 mph 1021.6mb 69f 60f
1:54 9 11 mph 1021.8mb 69f 60f
1:48 7 10 mph 1021.8mb 69f 60f
1:42 8 10 mph 1021.9mb 69f 60f
1:36 1 2 mph 1021.9mb 69f 57f
1:30  -  3 mph 1022mb 68f 56f
1:24 2 3 mph 1021.9mb 68f 56f
1:18 3 6 mph 1021.9mb 67f 56f
1:12 5 6 mph 1021.9mb 67f 56f
1:06 5 6 mph 1022mb 67f 56f
1:00 5 6 mph 1022mb 67f 57f
12:54 5 6 mph 1022.1mb 67f 56f
12:48 5 6 mph 1022.3mb 68f 57f
12:42 5 6 mph 1022.3mb 68f 57f
12:36 3 6 mph 1022.3mb 68f 58f
12:30 6 6 mph 1022.3mb 68f 58f
12:24 5 7 mph 1022.2mb 68f 58f
12:18 3 6 mph 1022.2mb 68f 58f
12:12 5 7 mph 1022.1mb 68f 58f
12:06 7 13 mph 1022.1mb 68f 59f
12:00 8 10 mph 1022.1mb 68f 60f
Sáb 08/19 11:54 6 13 mph 1022.2mb 68f 61f
11:48 6 9 mph 1022.2mb 68f -
11:42 7 9 mph 1022.1mb 69f -
11:36 7 11 mph 1022.1mb 69f -
11:30 7 8 mph 1022.1mb 69f 60f
11:24 6 10 mph 1022.2mb 69f 60f
11:18 7 11 mph 1022.3mb 69f 60f
11:12 9 14 mph 1022.3mb 69f 60f
11:06 13 16 mph 1022.3mb 69f 60f
11:00 10 14 mph 1022.3mb 69f 60f
10:54 13 15 mph 1022.4mb 70f 60f
10:48 10 16 mph 1022.5mb 70f 60f
10:18 11 16 mph 1022.5mb 71f 60f
10:12 11 16 mph 1022.6mb 71f 60f
10:06 13 15 mph 1022.6mb 71f 59f
10:00 13 17 mph 1022.6mb 71f 60f
9:54 11 15 mph 1022.5mb 71f 59f
9:48 11 16 mph 1022.6mb 71f 60f
9:42 13 16 mph 1022.5mb 71f 60f
9:36 13 16 mph 1022.5mb 71f 60f